sensor_id;sensor_type;location;lat;lon;timestamp;P1;durP1;ratioP1;P2;durP2;ratioP2
7359;SDS011;3720;48.274;7.796;2022-08-19T00:01:44;17.00;;;13.88;;
7359;SDS011;3720;48.274;7.796;2022-08-19T00:04:18;21.40;;;16.50;;
7359;SDS011;3720;48.274;7.796;2022-08-19T00:06:51;20.38;;;14.23;;
7359;SDS011;3720;48.274;7.796;2022-08-19T00:09:24;19.35;;;14.43;;
7359;SDS011;3720;48.274;7.796;2022-08-19T00:11:56;23.45;;;15.13;;
7359;SDS011;3720;48.274;7.796;2022-08-19T00:14:30;21.73;;;15.68;;
7359;SDS011;3720;48.274;7.796;2022-08-19T00:17:04;25.55;;;17.25;;
7359;SDS011;3720;48.274;7.796;2022-08-19T00:19:38;22.60;;;15.18;;
7359;SDS011;3720;48.274;7.796;2022-08-19T00:22:10;17.50;;;13.50;;
7359;SDS011;3720;48.274;7.796;2022-08-19T00:24:42;20.60;;;16.45;;
7359;SDS011;3720;48.274;7.796;2022-08-19T00:27:15;25.55;;;16.48;;
7359;SDS011;3720;48.274;7.796;2022-08-19T00:29:47;24.60;;;16.00;;
7359;SDS011;3720;48.274;7.796;2022-08-19T00:32:20;22.70;;;16.02;;
7359;SDS011;3720;48.274;7.796;2022-08-19T00:34:52;28.65;;;18.90;;
7359;SDS011;3720;48.274;7.796;2022-08-19T00:37:24;32.08;;;20.10;;
7359;SDS011;3720;48.274;7.796;2022-08-19T00:39:56;30.10;;;20.98;;
7359;SDS011;3720;48.274;7.796;2022-08-19T00:42:28;26.55;;;21.38;;
7359;SDS011;3720;48.274;7.796;2022-08-19T00:45:00;27.52;;;18.73;;
7359;SDS011;3720;48.274;7.796;2022-08-19T00:47:40;24.42;;;19.95;;
7359;SDS011;3720;48.274;7.796;2022-08-19T00:50:12;30.30;;;22.23;;
7359;SDS011;3720;48.274;7.796;2022-08-19T00:52:48;33.20;;;22.63;;
7359;SDS011;3720;48.274;7.796;2022-08-19T00:55:24;32.85;;;21.63;;
7359;SDS011;3720;48.274;7.796;2022-08-19T00:58:00;27.38;;;20.58;;
7359;SDS011;3720;48.274;7.796;2022-08-19T01:00:35;29.90;;;19.48;;
7359;SDS011;3720;48.274;7.796;2022-08-19T01:03:10;26.77;;;17.88;;
7359;SDS011;3720;48.274;7.796;2022-08-19T01:05:44;20.42;;;17.00;;
7359;SDS011;3720;48.274;7.796;2022-08-19T01:08:17;27.40;;;18.27;;
7359;SDS011;3720;48.274;7.796;2022-08-19T01:10:50;23.08;;;15.20;;
7359;SDS011;3720;48.274;7.796;2022-08-19T01:13:27;18.98;;;14.55;;
7359;SDS011;3720;48.274;7.796;2022-08-19T01:16:03;19.52;;;15.30;;
7359;SDS011;3720;48.274;7.796;2022-08-19T01:18:40;21.10;;;15.10;;
7359;SDS011;3720;48.274;7.796;2022-08-19T01:21:15;18.77;;;15.10;;
7359;SDS011;3720;48.274;7.796;2022-08-19T01:23:54;19.75;;;15.55;;
7359;SDS011;3720;48.274;7.796;2022-08-19T01:26:26;19.98;;;14.65;;
7359;SDS011;3720;48.274;7.796;2022-08-19T01:28:59;20.27;;;14.95;;
7359;SDS011;3720;48.274;7.796;2022-08-19T01:31:31;18.35;;;13.85;;
7359;SDS011;3720;48.274;7.796;2022-08-19T01:34:04;21.35;;;14.45;;
7359;SDS011;3720;48.274;7.796;2022-08-19T01:36:38;19.05;;;13.85;;
7359;SDS011;3720;48.274;7.796;2022-08-19T01:39:14;24.65;;;15.13;;
7359;SDS011;3720;48.274;7.796;2022-08-19T01:41:48;15.60;;;12.57;;
7359;SDS011;3720;48.274;7.796;2022-08-19T01:44:21;19.50;;;14.48;;
7359;SDS011;3720;48.274;7.796;2022-08-19T01:46:54;21.98;;;14.73;;
7359;SDS011;3720;48.274;7.796;2022-08-19T01:49:26;19.83;;;15.00;;
7359;SDS011;3720;48.274;7.796;2022-08-19T01:51:59;16.70;;;13.38;;
7359;SDS011;3720;48.274;7.796;2022-08-19T01:54:33;18.58;;;14.18;;
7359;SDS011;3720;48.274;7.796;2022-08-19T01:57:06;20.20;;;13.13;;
7359;SDS011;3720;48.274;7.796;2022-08-19T01:59:41;16.50;;;12.68;;
7359;SDS011;3720;48.274;7.796;2022-08-19T02:02:16;19.83;;;13.10;;
7359;SDS011;3720;48.274;7.796;2022-08-19T02:04:48;17.83;;;12.50;;
7359;SDS011;3720;48.274;7.796;2022-08-19T02:07:20;16.00;;;12.80;;
7359;SDS011;3720;48.274;7.796;2022-08-19T02:09:54;19.13;;;13.43;;
7359;SDS011;3720;48.274;7.796;2022-08-19T02:12:26;18.15;;;11.90;;
7359;SDS011;3720;48.274;7.796;2022-08-19T02:14:58;17.63;;;12.57;;
7359;SDS011;3720;48.274;7.796;2022-08-19T02:17:31;14.23;;;11.10;;
7359;SDS011;3720;48.274;7.796;2022-08-19T02:20:04;18.33;;;11.85;;
7359;SDS011;3720;48.274;7.796;2022-08-19T02:22:37;16.40;;;11.57;;
7359;SDS011;3720;48.274;7.796;2022-08-19T02:25:13;20.00;;;12.10;;
7359;SDS011;3720;48.274;7.796;2022-08-19T02:27:45;16.15;;;12.15;;
7359;SDS011;3720;48.274;7.796;2022-08-19T02:30:17;13.60;;;10.85;;
7359;SDS011;3720;48.274;7.796;2022-08-19T02:32:50;16.42;;;13.18;;
7359;SDS011;3720;48.274;7.796;2022-08-19T02:35:22;15.50;;;11.23;;
7359;SDS011;3720;48.274;7.796;2022-08-19T02:37:54;16.25;;;12.88;;
7359;SDS011;3720;48.274;7.796;2022-08-19T02:40:49;15.93;;;11.75;;
7359;SDS011;3720;48.274;7.796;2022-08-19T02:43:22;14.70;;;11.43;;
7359;SDS011;3720;48.274;7.796;2022-08-19T02:45:55;13.95;;;10.75;;
7359;SDS011;3720;48.274;7.796;2022-08-19T02:48:28;12.65;;;10.73;;
7359;SDS011;3720;48.274;7.796;2022-08-19T02:51:02;14.55;;;12.18;;
7359;SDS011;3720;48.274;7.796;2022-08-19T02:53:35;16.88;;;12.60;;
7359;SDS011;3720;48.274;7.796;2022-08-19T02:56:08;15.63;;;13.57;;
7359;SDS011;3720;48.274;7.796;2022-08-19T02:58:40;16.73;;;13.95;;
7359;SDS011;3720;48.274;7.796;2022-08-19T03:01:19;16.23;;;14.18;;
7359;SDS011;3720;48.274;7.796;2022-08-19T03:03:52;20.17;;;15.73;;
7359;SDS011;3720;48.274;7.796;2022-08-19T03:06:25;17.17;;;14.15;;
7359;SDS011;3720;48.274;7.796;2022-08-19T03:08:58;16.25;;;12.73;;
7359;SDS011;3720;48.274;7.796;2022-08-19T03:11:32;22.60;;;16.15;;
7359;SDS011;3720;48.274;7.796;2022-08-19T03:14:05;17.08;;;14.10;;
7359;SDS011;3720;48.274;7.796;2022-08-19T03:16:44;18.08;;;15.15;;
7359;SDS011;3720;48.274;7.796;2022-08-19T03:19:17;20.70;;;16.65;;
7359;SDS011;3720;48.274;7.796;2022-08-19T03:21:51;25.10;;;18.17;;
7359;SDS011;3720;48.274;7.796;2022-08-19T03:24:23;27.85;;;19.38;;
7359;SDS011;3720;48.274;7.796;2022-08-19T03:26:57;19.20;;;16.00;;
7359;SDS011;3720;48.274;7.796;2022-08-19T03:29:30;20.50;;;15.57;;
7359;SDS011;3720;48.274;7.796;2022-08-19T03:32:03;22.02;;;16.63;;
7359;SDS011;3720;48.274;7.796;2022-08-19T03:34:36;22.15;;;16.35;;
7359;SDS011;3720;48.274;7.796;2022-08-19T03:37:09;23.73;;;18.02;;
7359;SDS011;3720;48.274;7.796;2022-08-19T03:39:43;24.45;;;18.08;;
7359;SDS011;3720;48.274;7.796;2022-08-19T03:42:17;27.63;;;19.70;;
7359;SDS011;3720;48.274;7.796;2022-08-19T03:44:48;22.98;;;16.95;;
7359;SDS011;3720;48.274;7.796;2022-08-19T03:47:23;25.30;;;17.33;;
7359;SDS011;3720;48.274;7.796;2022-08-19T03:49:55;24.67;;;17.92;;
7359;SDS011;3720;48.274;7.796;2022-08-19T03:52:27;23.42;;;16.77;;
7359;SDS011;3720;48.274;7.796;2022-08-19T03:54:59;23.88;;;18.80;;
7359;SDS011;3720;48.274;7.796;2022-08-19T03:57:32;29.58;;;20.98;;
7359;SDS011;3720;48.274;7.796;2022-08-19T04:00:05;24.52;;;19.45;;
7359;SDS011;3720;48.274;7.796;2022-08-19T04:02:38;28.50;;;20.02;;
7359;SDS011;3720;48.274;7.796;2022-08-19T04:05:09;24.02;;;18.83;;
7359;SDS011;3720;48.274;7.796;2022-08-19T04:07:44;23.17;;;17.90;;
7359;SDS011;3720;48.274;7.796;2022-08-19T04:10:15;25.40;;;18.23;;
7359;SDS011;3720;48.274;7.796;2022-08-19T04:12:49;28.33;;;20.48;;
7359;SDS011;3720;48.274;7.796;2022-08-19T04:15:21;27.45;;;20.55;;
7359;SDS011;3720;48.274;7.796;2022-08-19T04:17:53;24.63;;;19.98;;
7359;SDS011;3720;48.274;7.796;2022-08-19T04:20:25;22.23;;;17.33;;
7359;SDS011;3720;48.274;7.796;2022-08-19T04:22:57;29.80;;;20.85;;
7359;SDS011;3720;48.274;7.796;2022-08-19T04:25:34;25.50;;;18.15;;
7359;SDS011;3720;48.274;7.796;2022-08-19T04:28:09;20.95;;;17.45;;
7359;SDS011;3720;48.274;7.796;2022-08-19T04:30:44;22.90;;;17.50;;
7359;SDS011;3720;48.274;7.796;2022-08-19T04:33:20;24.42;;;17.73;;
7359;SDS011;3720;48.274;7.796;2022-08-19T04:35:53;25.58;;;17.85;;
7359;SDS011;3720;48.274;7.796;2022-08-19T04:38:28;24.48;;;18.95;;
7359;SDS011;3720;48.274;7.796;2022-08-19T04:41:01;25.98;;;20.02;;
7359;SDS011;3720;48.274;7.796;2022-08-19T04:43:53;23.02;;;18.50;;
7359;SDS011;3720;48.274;7.796;2022-08-19T04:46:25;23.98;;;18.55;;
7359;SDS011;3720;48.274;7.796;2022-08-19T04:48:59;23.58;;;17.40;;
7359;SDS011;3720;48.274;7.796;2022-08-19T04:51:32;23.70;;;16.48;;
7359;SDS011;3720;48.274;7.796;2022-08-19T04:54:06;27.70;;;18.33;;
7359;SDS011;3720;48.274;7.796;2022-08-19T04:56:39;18.63;;;16.10;;
7359;SDS011;3720;48.274;7.796;2022-08-19T04:59:13;23.38;;;16.30;;
7359;SDS011;3720;48.274;7.796;2022-08-19T05:01:46;24.65;;;15.35;;
7359;SDS011;3720;48.274;7.796;2022-08-19T05:04:20;19.40;;;15.43;;
7359;SDS011;3720;48.274;7.796;2022-08-19T05:06:51;24.73;;;17.73;;
7359;SDS011;3720;48.274;7.796;2022-08-19T05:09:24;19.13;;;16.40;;
7359;SDS011;3720;48.274;7.796;2022-08-19T05:11:56;20.80;;;16.38;;
7359;SDS011;3720;48.274;7.796;2022-08-19T05:14:29;20.95;;;16.50;;
7359;SDS011;3720;48.274;7.796;2022-08-19T05:17:01;23.30;;;17.83;;
7359;SDS011;3720;48.274;7.796;2022-08-19T05:19:33;21.17;;;16.95;;
7359;SDS011;3720;48.274;7.796;2022-08-19T05:22:22;20.85;;;16.48;;
7359;SDS011;3720;48.274;7.796;2022-08-19T05:25:07;20.80;;;16.67;;
7359;SDS011;3720;48.274;7.796;2022-08-19T05:27:42;20.30;;;15.55;;
7359;SDS011;3720;48.274;7.796;2022-08-19T05:30:15;22.10;;;17.98;;
7359;SDS011;3720;48.274;7.796;2022-08-19T05:32:48;21.02;;;15.70;;
7359;SDS011;3720;48.274;7.796;2022-08-19T05:35:20;23.13;;;16.15;;
7359;SDS011;3720;48.274;7.796;2022-08-19T05:37:54;25.63;;;15.23;;
7359;SDS011;3720;48.274;7.796;2022-08-19T05:40:25;19.85;;;15.55;;
7359;SDS011;3720;48.274;7.796;2022-08-19T05:42:58;20.55;;;16.90;;
7359;SDS011;3720;48.274;7.796;2022-08-19T05:45:31;23.05;;;17.75;;
7359;SDS011;3720;48.274;7.796;2022-08-19T05:48:03;22.90;;;17.50;;
7359;SDS011;3720;48.274;7.796;2022-08-19T05:50:36;19.60;;;15.13;;
7359;SDS011;3720;48.274;7.796;2022-08-19T05:53:09;21.00;;;15.82;;
7359;SDS011;3720;48.274;7.796;2022-08-19T05:55:42;22.02;;;16.80;;
7359;SDS011;3720;48.274;7.796;2022-08-19T05:58:13;20.42;;;16.17;;
7359;SDS011;3720;48.274;7.796;2022-08-19T06:00:48;19.73;;;15.48;;
7359;SDS011;3720;48.274;7.796;2022-08-19T06:03:21;19.17;;;15.00;;
7359;SDS011;3720;48.274;7.796;2022-08-19T06:05:53;21.08;;;16.98;;
7359;SDS011;3720;48.274;7.796;2022-08-19T06:08:26;19.38;;;15.13;;
7359;SDS011;3720;48.274;7.796;2022-08-19T06:10:58;22.92;;;17.33;;
7359;SDS011;3720;48.274;7.796;2022-08-19T06:13:44;20.25;;;16.35;;
7359;SDS011;3720;48.274;7.796;2022-08-19T06:16:21;19.55;;;16.05;;
7359;SDS011;3720;48.274;7.796;2022-08-19T06:18:54;23.70;;;16.75;;
7359;SDS011;3720;48.274;7.796;2022-08-19T06:21:27;19.60;;;15.68;;
7359;SDS011;3720;48.274;7.796;2022-08-19T06:24:00;19.88;;;16.13;;
7359;SDS011;3720;48.274;7.796;2022-08-19T06:26:33;17.50;;;14.48;;
7359;SDS011;3720;48.274;7.796;2022-08-19T06:29:06;23.95;;;19.33;;
7359;SDS011;3720;48.274;7.796;2022-08-19T06:31:42;21.88;;;17.67;;
7359;SDS011;3720;48.274;7.796;2022-08-19T06:34:16;20.10;;;16.63;;
7359;SDS011;3720;48.274;7.796;2022-08-19T06:36:49;15.93;;;13.73;;
7359;SDS011;3720;48.274;7.796;2022-08-19T06:39:23;19.10;;;15.40;;
7359;SDS011;3720;48.274;7.796;2022-08-19T06:41:57;19.92;;;16.08;;
7359;SDS011;3720;48.274;7.796;2022-08-19T06:44:32;21.13;;;16.23;;
7359;SDS011;3720;48.274;7.796;2022-08-19T06:47:08;20.52;;;15.95;;
7359;SDS011;3720;48.274;7.796;2022-08-19T06:49:41;22.20;;;15.77;;
7359;SDS011;3720;48.274;7.796;2022-08-19T06:52:14;19.98;;;15.23;;
7359;SDS011;3720;48.274;7.796;2022-08-19T06:54:46;21.65;;;16.38;;
7359;SDS011;3720;48.274;7.796;2022-08-19T06:57:18;19.42;;;15.85;;
7359;SDS011;3720;48.274;7.796;2022-08-19T06:59:50;20.45;;;16.15;;
7359;SDS011;3720;48.274;7.796;2022-08-19T07:02:23;21.45;;;17.38;;
7359;SDS011;3720;48.274;7.796;2022-08-19T07:04:56;20.80;;;17.02;;
7359;SDS011;3720;48.274;7.796;2022-08-19T07:07:28;19.10;;;15.38;;
7359;SDS011;3720;48.274;7.796;2022-08-19T07:10:01;15.40;;;12.93;;
7359;SDS011;3720;48.274;7.796;2022-08-19T07:12:34;20.15;;;15.23;;
7359;SDS011;3720;48.274;7.796;2022-08-19T07:15:07;20.20;;;15.02;;
7359;SDS011;3720;48.274;7.796;2022-08-19T07:17:42;16.75;;;13.48;;
7359;SDS011;3720;48.274;7.796;2022-08-19T07:20:14;24.75;;;19.08;;
7359;SDS011;3720;48.274;7.796;2022-08-19T07:22:46;21.20;;;16.17;;
7359;SDS011;3720;48.274;7.796;2022-08-19T07:25:19;20.88;;;15.50;;
7359;SDS011;3720;48.274;7.796;2022-08-19T07:27:51;17.77;;;14.80;;
7359;SDS011;3720;48.274;7.796;2022-08-19T07:30:24;25.15;;;20.27;;
7359;SDS011;3720;48.274;7.796;2022-08-19T07:32:57;20.48;;;16.45;;
7359;SDS011;3720;48.274;7.796;2022-08-19T07:35:29;20.63;;;15.85;;
7359;SDS011;3720;48.274;7.796;2022-08-19T07:38:02;23.75;;;17.58;;
7359;SDS011;3720;48.274;7.796;2022-08-19T07:40:34;19.88;;;15.55;;
7359;SDS011;3720;48.274;7.796;2022-08-19T07:43:06;23.10;;;18.58;;
7359;SDS011;3720;48.274;7.796;2022-08-19T07:45:38;21.67;;;18.45;;
7359;SDS011;3720;48.274;7.796;2022-08-19T07:48:11;23.27;;;16.98;;
7359;SDS011;3720;48.274;7.796;2022-08-19T07:50:44;18.85;;;15.48;;
7359;SDS011;3720;48.274;7.796;2022-08-19T07:53:18;23.17;;;16.98;;
7359;SDS011;3720;48.274;7.796;2022-08-19T07:55:51;20.27;;;16.95;;
7359;SDS011;3720;48.274;7.796;2022-08-19T07:58:23;26.13;;;19.83;;
7359;SDS011;3720;48.274;7.796;2022-08-19T08:00:55;25.63;;;19.55;;
7359;SDS011;3720;48.274;7.796;2022-08-19T08:03:29;23.63;;;17.13;;
7359;SDS011;3720;48.274;7.796;2022-08-19T08:06:18;21.55;;;15.90;;
7359;SDS011;3720;48.274;7.796;2022-08-19T08:09:08;21.75;;;17.65;;
7359;SDS011;3720;48.274;7.796;2022-08-19T08:11:48;24.73;;;18.10;;
7359;SDS011;3720;48.274;7.796;2022-08-19T08:14:23;22.70;;;18.10;;
7359;SDS011;3720;48.274;7.796;2022-08-19T08:16:57;20.75;;;16.10;;
7359;SDS011;3720;48.274;7.796;2022-08-19T08:19:31;18.55;;;15.93;;
7359;SDS011;3720;48.274;7.796;2022-08-19T08:22:04;17.17;;;13.60;;
7359;SDS011;3720;48.274;7.796;2022-08-19T08:24:37;20.52;;;17.23;;
7359;SDS011;3720;48.274;7.796;2022-08-19T08:27:08;24.88;;;19.48;;
7359;SDS011;3720;48.274;7.796;2022-08-19T08:29:41;25.00;;;18.67;;
7359;SDS011;3720;48.274;7.796;2022-08-19T08:32:14;25.83;;;20.15;;
7359;SDS011;3720;48.274;7.796;2022-08-19T08:34:48;21.77;;;17.55;;
7359;SDS011;3720;48.274;7.796;2022-08-19T08:37:20;17.88;;;15.13;;
7359;SDS011;3720;48.274;7.796;2022-08-19T08:39:52;23.98;;;20.35;;
7359;SDS011;3720;48.274;7.796;2022-08-19T08:42:26;24.35;;;20.25;;
7359;SDS011;3720;48.274;7.796;2022-08-19T08:45:03;23.70;;;19.10;;
7359;SDS011;3720;48.274;7.796;2022-08-19T08:47:46;21.48;;;16.90;;
7359;SDS011;3720;48.274;7.796;2022-08-19T08:50:24;21.15;;;16.90;;
7359;SDS011;3720;48.274;7.796;2022-08-19T08:53:01;23.80;;;19.42;;
7359;SDS011;3720;48.274;7.796;2022-08-19T08:55:36;23.83;;;19.08;;
7359;SDS011;3720;48.274;7.796;2022-08-19T08:58:12;20.42;;;17.10;;
7359;SDS011;3720;48.274;7.796;2022-08-19T09:00:48;20.45;;;17.02;;
7359;SDS011;3720;48.274;7.796;2022-08-19T09:03:21;24.75;;;20.20;;
7359;SDS011;3720;48.274;7.796;2022-08-19T09:05:58;22.90;;;18.90;;
7359;SDS011;3720;48.274;7.796;2022-08-19T09:08:38;21.73;;;16.98;;
7359;SDS011;3720;48.274;7.796;2022-08-19T09:11:19;23.60;;;19.65;;
7359;SDS011;3720;48.274;7.796;2022-08-19T09:14:02;25.80;;;21.00;;
7359;SDS011;3720;48.274;7.796;2022-08-19T09:16:40;23.70;;;18.42;;
7359;SDS011;3720;48.274;7.796;2022-08-19T09:19:12;18.95;;;15.15;;
7359;SDS011;3720;48.274;7.796;2022-08-19T09:21:47;18.48;;;14.93;;
7359;SDS011;3720;48.274;7.796;2022-08-19T09:24:19;21.80;;;17.92;;
7359;SDS011;3720;48.274;7.796;2022-08-19T09:26:51;23.30;;;19.35;;
7359;SDS011;3720;48.274;7.796;2022-08-19T09:29:23;24.10;;;19.48;;
7359;SDS011;3720;48.274;7.796;2022-08-19T09:31:55;25.30;;;19.67;;
7359;SDS011;3720;48.274;7.796;2022-08-19T09:34:27;20.15;;;15.98;;
7359;SDS011;3720;48.274;7.796;2022-08-19T09:37:01;19.10;;;16.63;;
7359;SDS011;3720;48.274;7.796;2022-08-19T09:39:33;21.33;;;17.60;;
7359;SDS011;3720;48.274;7.796;2022-08-19T09:42:05;17.73;;;14.95;;
7359;SDS011;3720;48.274;7.796;2022-08-19T09:44:41;22.90;;;17.95;;
7359;SDS011;3720;48.274;7.796;2022-08-19T09:47:14;24.13;;;17.85;;
7359;SDS011;3720;48.274;7.796;2022-08-19T09:49:46;25.88;;;19.88;;
7359;SDS011;3720;48.274;7.796;2022-08-19T09:52:20;23.40;;;19.33;;
7359;SDS011;3720;48.274;7.796;2022-08-19T09:54:52;21.63;;;18.58;;
7359;SDS011;3720;48.274;7.796;2022-08-19T09:57:24;22.05;;;18.45;;
7359;SDS011;3720;48.274;7.796;2022-08-19T09:59:56;24.27;;;19.27;;
7359;SDS011;3720;48.274;7.796;2022-08-19T10:02:28;25.10;;;20.10;;
7359;SDS011;3720;48.274;7.796;2022-08-19T10:05:00;25.77;;;19.70;;
7359;SDS011;3720;48.274;7.796;2022-08-19T10:07:51;25.88;;;19.20;;
7359;SDS011;3720;48.274;7.796;2022-08-19T10:10:24;26.70;;;20.70;;
7359;SDS011;3720;48.274;7.796;2022-08-19T10:12:56;25.67;;;21.52;;
7359;SDS011;3720;48.274;7.796;2022-08-19T10:15:28;24.60;;;20.45;;
7359;SDS011;3720;48.274;7.796;2022-08-19T10:18:00;25.63;;;18.60;;
7359;SDS011;3720;48.274;7.796;2022-08-19T10:20:33;24.05;;;17.73;;
7359;SDS011;3720;48.274;7.796;2022-08-19T10:23:07;21.95;;;18.23;;
7359;SDS011;3720;48.274;7.796;2022-08-19T10:25:39;24.05;;;18.30;;
7359;SDS011;3720;48.274;7.796;2022-08-19T10:28:11;29.05;;;22.00;;
7359;SDS011;3720;48.274;7.796;2022-08-19T10:30:43;24.25;;;19.05;;
7359;SDS011;3720;48.274;7.796;2022-08-19T10:33:15;27.50;;;21.63;;
7359;SDS011;3720;48.274;7.796;2022-08-19T10:35:47;21.65;;;18.55;;
7359;SDS011;3720;48.274;7.796;2022-08-19T10:38:21;21.60;;;17.58;;
7359;SDS011;3720;48.274;7.796;2022-08-19T10:40:52;26.50;;;21.58;;
7359;SDS011;3720;48.274;7.796;2022-08-19T10:43:24;26.85;;;21.55;;
7359;SDS011;3720;48.274;7.796;2022-08-19T10:45:56;25.33;;;20.38;;
7359;SDS011;3720;48.274;7.796;2022-08-19T10:48:29;21.80;;;18.35;;
7359;SDS011;3720;48.274;7.796;2022-08-19T10:51:01;23.30;;;18.13;;
7359;SDS011;3720;48.274;7.796;2022-08-19T10:53:52;21.45;;;17.60;;
7359;SDS011;3720;48.274;7.796;2022-08-19T10:56:24;24.67;;;19.02;;
7359;SDS011;3720;48.274;7.796;2022-08-19T10:59:14;27.13;;;21.35;;
7359;SDS011;3720;48.274;7.796;2022-08-19T11:01:46;24.15;;;20.15;;
7359;SDS011;3720;48.274;7.796;2022-08-19T11:04:19;29.83;;;22.05;;
7359;SDS011;3720;48.274;7.796;2022-08-19T11:06:52;24.33;;;20.00;;
7359;SDS011;3720;48.274;7.796;2022-08-19T11:09:26;27.60;;;22.60;;
7359;SDS011;3720;48.274;7.796;2022-08-19T11:11:58;25.60;;;20.50;;
7359;SDS011;3720;48.274;7.796;2022-08-19T11:14:30;24.40;;;19.17;;
7359;SDS011;3720;48.274;7.796;2022-08-19T11:17:04;27.77;;;20.98;;
7359;SDS011;3720;48.274;7.796;2022-08-19T11:19:37;26.05;;;21.45;;
7359;SDS011;3720;48.274;7.796;2022-08-19T11:22:09;26.10;;;20.98;;
7359;SDS011;3720;48.274;7.796;2022-08-19T11:24:42;25.52;;;21.05;;
7359;SDS011;3720;48.274;7.796;2022-08-19T11:27:14;30.05;;;21.88;;
7359;SDS011;3720;48.274;7.796;2022-08-19T11:29:46;25.60;;;21.20;;
7359;SDS011;3720;48.274;7.796;2022-08-19T11:32:18;28.90;;;22.45;;
7359;SDS011;3720;48.274;7.796;2022-08-19T11:34:50;26.42;;;21.70;;
7359;SDS011;3720;48.274;7.796;2022-08-19T11:37:22;28.50;;;22.23;;
7359;SDS011;3720;48.274;7.796;2022-08-19T11:39:56;31.13;;;22.83;;
7359;SDS011;3720;48.274;7.796;2022-08-19T11:42:28;29.95;;;22.10;;
7359;SDS011;3720;48.274;7.796;2022-08-19T11:45:17;27.75;;;21.73;;
7359;SDS011;3720;48.274;7.796;2022-08-19T11:47:49;26.60;;;21.88;;
7359;SDS011;3720;48.274;7.796;2022-08-19T11:50:21;29.40;;;21.42;;
7359;SDS011;3720;48.274;7.796;2022-08-19T11:52:54;24.73;;;20.25;;
7359;SDS011;3720;48.274;7.796;2022-08-19T11:55:28;30.52;;;22.50;;
7359;SDS011;3720;48.274;7.796;2022-08-19T11:58:00;27.75;;;23.02;;
7359;SDS011;3720;48.274;7.796;2022-08-19T12:00:32;26.77;;;21.13;;
7359;SDS011;3720;48.274;7.796;2022-08-19T12:03:06;23.85;;;19.25;;
7359;SDS011;3720;48.274;7.796;2022-08-19T12:05:39;24.52;;;19.40;;
7359;SDS011;3720;48.274;7.796;2022-08-19T12:08:12;24.80;;;20.27;;
7359;SDS011;3720;48.274;7.796;2022-08-19T12:10:46;20.70;;;17.70;;
7359;SDS011;3720;48.274;7.796;2022-08-19T12:13:18;25.27;;;19.98;;
7359;SDS011;3720;48.274;7.796;2022-08-19T12:15:50;23.45;;;18.52;;
7359;SDS011;3720;48.274;7.796;2022-08-19T12:18:23;24.00;;;18.75;;
7359;SDS011;3720;48.274;7.796;2022-08-19T12:20:56;24.73;;;18.77;;
7359;SDS011;3720;48.274;7.796;2022-08-19T12:23:30;19.63;;;16.75;;
7359;SDS011;3720;48.274;7.796;2022-08-19T12:26:03;19.83;;;15.13;;
7359;SDS011;3720;48.274;7.796;2022-08-19T12:28:36;19.42;;;17.42;;
7359;SDS011;3720;48.274;7.796;2022-08-19T12:31:09;23.85;;;19.15;;
7359;SDS011;3720;48.274;7.796;2022-08-19T12:33:42;19.63;;;15.05;;
7359;SDS011;3720;48.274;7.796;2022-08-19T12:36:15;21.25;;;18.20;;
7359;SDS011;3720;48.274;7.796;2022-08-19T12:38:48;19.88;;;16.08;;
7359;SDS011;3720;48.274;7.796;2022-08-19T12:41:22;16.08;;;13.27;;
7359;SDS011;3720;48.274;7.796;2022-08-19T12:43:54;20.40;;;16.63;;
7359;SDS011;3720;48.274;7.796;2022-08-19T12:46:26;22.30;;;17.40;;
7359;SDS011;3720;48.274;7.796;2022-08-19T12:48:58;19.60;;;16.05;;
7359;SDS011;3720;48.274;7.796;2022-08-19T12:51:30;18.63;;;14.77;;
7359;SDS011;3720;48.274;7.796;2022-08-19T12:54:02;19.88;;;16.65;;
7359;SDS011;3720;48.274;7.796;2022-08-19T12:56:37;17.92;;;13.50;;
7359;SDS011;3720;48.274;7.796;2022-08-19T12:59:09;19.52;;;15.10;;
7359;SDS011;3720;48.274;7.796;2022-08-19T13:01:41;14.95;;;13.35;;
7359;SDS011;3720;48.274;7.796;2022-08-19T13:04:14;15.48;;;13.88;;
7359;SDS011;3720;48.274;7.796;2022-08-19T13:06:46;16.27;;;13.70;;
7359;SDS011;3720;48.274;7.796;2022-08-19T13:09:18;15.15;;;13.55;;
7359;SDS011;3720;48.274;7.796;2022-08-19T13:11:52;14.82;;;13.23;;
7359;SDS011;3720;48.274;7.796;2022-08-19T13:14:23;13.40;;;12.07;;
7359;SDS011;3720;48.274;7.796;2022-08-19T13:16:55;17.08;;;13.73;;
7359;SDS011;3720;48.274;7.796;2022-08-19T13:19:27;15.65;;;12.38;;
7359;SDS011;3720;48.274;7.796;2022-08-19T13:22:00;16.20;;;12.60;;
7359;SDS011;3720;48.274;7.796;2022-08-19T13:24:32;18.58;;;13.05;;
7359;SDS011;3720;48.274;7.796;2022-08-19T13:27:08;12.90;;;11.60;;
7359;SDS011;3720;48.274;7.796;2022-08-19T13:29:40;12.38;;;10.63;;
7359;SDS011;3720;48.274;7.796;2022-08-19T13:32:29;10.93;;;9.82;;
7359;SDS011;3720;48.274;7.796;2022-08-19T13:35:19;13.50;;;11.10;;
7359;SDS011;3720;48.274;7.796;2022-08-19T13:37:51;11.30;;;10.10;;
7359;SDS011;3720;48.274;7.796;2022-08-19T13:40:24;12.52;;;9.93;;
7359;SDS011;3720;48.274;7.796;2022-08-19T13:42:58;11.00;;;9.90;;
7359;SDS011;3720;48.274;7.796;2022-08-19T13:45:32;11.00;;;9.90;;
7359;SDS011;3720;48.274;7.796;2022-08-19T13:48:05;12.70;;;9.90;;
7359;SDS011;3720;48.274;7.796;2022-08-19T13:50:39;10.68;;;9.57;;
7359;SDS011;3720;48.274;7.796;2022-08-19T13:53:12;11.65;;;9.70;;
7359;SDS011;3720;48.274;7.796;2022-08-19T13:55:46;10.77;;;9.77;;
7359;SDS011;3720;48.274;7.796;2022-08-19T13:58:21;14.90;;;10.75;;
7359;SDS011;3720;48.274;7.796;2022-08-19T14:00:54;12.55;;;10.80;;
7359;SDS011;3720;48.274;7.796;2022-08-19T14:03:26;19.20;;;10.35;;
7359;SDS011;3720;48.274;7.796;2022-08-19T14:05:59;14.00;;;10.05;;
7359;SDS011;3720;48.274;7.796;2022-08-19T14:08:31;12.23;;;9.77;;
7359;SDS011;3720;48.274;7.796;2022-08-19T14:11:03;12.02;;;10.60;;
7359;SDS011;3720;48.274;7.796;2022-08-19T14:13:36;12.00;;;10.35;;
7359;SDS011;3720;48.274;7.796;2022-08-19T14:16:09;12.95;;;10.95;;
7359;SDS011;3720;48.274;7.796;2022-08-19T14:18:42;12.65;;;11.25;;
7359;SDS011;3720;48.274;7.796;2022-08-19T14:21:15;12.48;;;11.18;;
7359;SDS011;3720;48.274;7.796;2022-08-19T14:23:48;12.55;;;11.02;;
7359;SDS011;3720;48.274;7.796;2022-08-19T14:26:22;13.13;;;11.32;;
7359;SDS011;3720;48.274;7.796;2022-08-19T14:28:57;14.50;;;11.82;;
7359;SDS011;3720;48.274;7.796;2022-08-19T14:31:29;14.07;;;11.27;;
7359;SDS011;3720;48.274;7.796;2022-08-19T14:34:01;12.25;;;10.95;;
7359;SDS011;3720;48.274;7.796;2022-08-19T14:36:34;12.77;;;11.48;;
7359;SDS011;3720;48.274;7.796;2022-08-19T14:39:05;13.32;;;11.93;;
7359;SDS011;3720;48.274;7.796;2022-08-19T14:41:39;14.57;;;11.80;;
7359;SDS011;3720;48.274;7.796;2022-08-19T14:44:13;14.27;;;11.73;;
7359;SDS011;3720;48.274;7.796;2022-08-19T14:46:45;16.27;;;12.05;;
7359;SDS011;3720;48.274;7.796;2022-08-19T14:49:17;12.38;;;10.82;;
7359;SDS011;3720;48.274;7.796;2022-08-19T14:51:49;12.13;;;10.88;;
7359;SDS011;3720;48.274;7.796;2022-08-19T14:54:21;12.73;;;10.52;;
7359;SDS011;3720;48.274;7.796;2022-08-19T14:56:53;13.20;;;10.43;;
7359;SDS011;3720;48.274;7.796;2022-08-19T14:59:26;11.85;;;10.27;;
7359;SDS011;3720;48.274;7.796;2022-08-19T15:01:58;10.80;;;9.70;;
7359;SDS011;3720;48.274;7.796;2022-08-19T15:04:30;11.85;;;9.90;;
7359;SDS011;3720;48.274;7.796;2022-08-19T15:07:02;13.00;;;9.70;;
7359;SDS011;3720;48.274;7.796;2022-08-19T15:09:35;12.20;;;10.27;;
7359;SDS011;3720;48.274;7.796;2022-08-19T15:12:07;11.30;;;9.23;;
7359;SDS011;3720;48.274;7.796;2022-08-19T15:14:41;10.07;;;8.95;;
7359;SDS011;3720;48.274;7.796;2022-08-19T15:17:14;10.20;;;9.20;;
7359;SDS011;3720;48.274;7.796;2022-08-19T15:19:46;10.48;;;9.38;;
7359;SDS011;3720;48.274;7.796;2022-08-19T15:22:18;10.20;;;9.15;;
7359;SDS011;3720;48.274;7.796;2022-08-19T15:24:51;13.02;;;9.32;;
7359;SDS011;3720;48.274;7.796;2022-08-19T15:27:25;11.02;;;9.00;;